メインページ
METAR-TAF:

METAR-TAF

空港 :

エセンボーア国際空港

アンカラ-エセンボーア, トルコ

緯度: 40-07N, 経度: 032-59E, 海抜: 953m

現時点の気象観測

当レポートは24分前の08:50(UTC)に作成
の風 5kt
気温 23°C
湿度 53%
気圧 1016 hPa
視程10km以上
高度4000ftの雲は散在している
高度10000ftの雲は散在している

METAR: LTAC 200850Z 17005KT 9999 SCT040 SCT100 23/13 Q1016 NOSIG RMK RWY21L 25004KT 200V310 RWY03L 26003KT 160V330 RWY21R VRB04KT

時間: 12:14 (09:14 UTC)

予報

当レポートは4時間34分前の04:40(UTC)に作成
予報は20日の 06時(UTC)から 21日の 06時(UTC)まで有効
変向風 2kt
視程10km以上
高度4000ftの雲は散在している
20日の 07時(UTC)から 20日の 11時(UTC)まで一時的に
高度3000ftの千切れ雲あり
高度9000ftの千切れ雲あり
弱いにわか雨
20日の 13時(UTC)から 20日の 17時(UTC)まで一時的に
北/北東の風 15kt、最大25ktの突風を伴う
高度2500ftの雲はほとんどない, 積乱雲.
高度3000ftの千切れ雲あり
激しい雷雨, 小雨
20日の 18時(UTC)から 20日の 22時(UTC)まで一時的に
高度2500ftの雲はほとんどない, 積乱雲.
高度3000ftの千切れ雲あり
弱いにわか雨

TAF: LTAC 200440Z 2006/2106 VRB02KT 9999 SCT040 TEMPO 2007/2011 -SHRA BKN030 BKN090 TEMPO 2013/2017 02015G25KT -TSRA FEW025CB BKN030 TEMPO 2018/2022 -SHRA FEW025CB BKN030

4,000以上の空港の気象観測と天気予報(METAR報とTAF報)

利用可能な観測所は地図上に黄色い丸と赤い丸で示す。

丸の上にカーソルを重ねると観測所名を参照できる。

次にクリックすると気象観測と天気予報を参照できる。

マップの切り替え:黒色「×」印の緑ボタンをクリックして拡大、「-」印の緑ボタンをクリックして縮小、緑色の三角印をクリックして隣りの地図に切り替え


METAR-TAF: